Time;durP1;ratioP1;P1;durP2;ratioP2;P2;SDS_P1;SDS_P2;PMS_P1;PMS_P2;Temp;Humidity;BMP_temperature;BMP_pressure;BME280_temperature;BME280_humidity;BME280_pressure;Samples;Min_cycle;Max_cycle;Signal;HPM_P1;HPM_P2
2024/01/02 00:00:08;;;;;;;;;;;11.00;57.30;;;9.45;59.44;100358.06;12259037;19;19919;-87
2024/01/02 00:04:16;;;;;;;;;;;11.00;57.20;;;9.43;59.39;100346.91;12253963;19;19990;-86
2024/01/02 00:08:17;;;;;;;;;;;11.00;57.20;;;9.58;59.50;100371.25;12251194;19;19998;-87
2024/01/02 00:12:19;;;;;;;;;;;11.00;57.20;;;9.65;59.33;100386.47;12256547;19;19921;-87
2024/01/02 00:16:20;;;;;;;;;;;10.90;57.20;;;9.40;59.54;100347.94;12252007;19;19918;-87
2024/01/02 00:20:22;;;;;;;;;;;11.00;57.20;;;9.68;59.56;100393.28;12254774;19;20294;-86
2024/01/02 00:24:23;;;;;;;;;;;11.00;57.20;;;9.65;59.48;100394.28;12251519;19;19915;-86
2024/01/02 00:28:25;;;;;;;;;;;11.00;57.20;;;9.58;59.38;100374.69;12251052;19;19926;-86
2024/01/02 00:32:27;;;;;;;;;;;10.90;57.10;;;9.64;59.52;100387.41;12252565;19;19947;-86
2024/01/02 00:36:29;;;;;;;;;;;10.90;57.10;;;9.55;59.56;100363.63;12251213;19;19927;-87
2024/01/02 00:40:30;;;;;;;;;;;11.00;57.20;;;9.59;59.60;100381.63;12253343;19;19910;-86
2024/01/02 00:44:32;;;;;;;;;;;10.90;57.10;;;9.47;59.35;100364.03;12250238;19;19918;-87
2024/01/02 00:48:34;;;;;;;;;;;10.90;57.20;;;9.16;59.58;100316.28;12250215;19;20313;-87
2024/01/02 00:52:36;;;;;;;;;;;10.90;57.10;;;9.54;59.48;100362.78;12252320;19;19907;-86
2024/01/02 00:56:38;;;;;;;;;;;10.90;57.10;;;9.37;59.38;100331.59;12250199;19;19947;-87
2024/01/02 01:00:39;;;;;;;;;;;10.90;57.20;;;9.48;59.36;100344.91;12254007;19;19919;-87
2024/01/02 01:04:42;;;;;;;;;;;10.90;57.10;;;9.63;59.47;100362.25;12248992;19;19910;-86
2024/01/02 01:08:44;;;;;;;;;;;10.90;57.10;;;9.62;59.48;100357.13;12248742;19;19922;-86
2024/01/02 01:12:46;;;;;;;;;;;10.90;57.10;;;9.55;59.47;100350.59;12252735;19;19919;-86
2024/01/02 01:16:47;;;;;;;;;;;10.90;57.10;;;9.57;59.31;100367.00;12249708;19;20362;-86
2024/01/02 01:20:49;;;;;;;;;;;10.90;57.00;;;9.55;59.46;100366.22;12252006;19;19942;-86
2024/01/02 01:24:50;;;;;;;;;;;10.90;57.00;;;9.34;59.43;100324.81;12248756;19;20328;-86
2024/01/02 01:28:52;;;;;;;;;;;10.80;57.30;;;9.39;59.42;100333.19;12251226;19;19918;-86
2024/01/02 01:32:54;;;;;;;;;;;10.80;57.00;;;9.55;59.50;100353.19;12250731;19;19943;-86
2024/01/02 01:36:55;;;;;;;;;;;10.80;57.00;;;9.46;59.33;100344.13;12250714;19;20597;-86
2024/01/02 01:40:57;;;;;;;;;;;10.80;57.00;;;9.34;59.44;100327.41;12252052;19;19918;-86
2024/01/02 01:44:59;;;;;;;;;;;10.80;56.90;;;9.40;59.44;100334.06;12248714;19;19943;-86
2024/01/02 01:49:00;;;;;;;;;;;11.00;57.00;;;9.42;59.44;100346.06;12248214;19;19966;-86
2024/01/02 01:53:02;;;;;;;;;;;10.70;56.90;;;9.46;59.33;100349.34;12250161;19;19931;-86
2024/01/02 01:57:04;;;;;;;;;;;10.70;56.90;;;9.38;59.27;100341.13;12247271;19;19915;-86
2024/01/02 02:01:07;;;;;;;;;;;10.70;56.90;;;9.28;59.55;100323.38;12250728;19;19915;-86
2024/01/02 02:05:10;;;;;;;;;;;10.80;56.90;;;9.30;59.51;100331.97;12247028;19;20579;-86
2024/01/02 02:09:12;;;;;;;;;;;10.70;56.90;;;9.39;59.34;100350.59;12249465;19;19938;-86
2024/01/02 02:13:15;;;;;;;;;;;10.60;56.90;;;9.29;59.56;100345.94;12247020;19;19940;-86
2024/01/02 02:17:19;;;;;;;;;;;10.60;56.90;;;9.23;59.34;100328.00;12247968;19;19923;-86
2024/01/02 02:21:20;;;;;;;;;;;10.60;56.90;;;9.27;59.41;100347.78;12246289;19;20329;-86
2024/01/02 02:25:22;;;;;;;;;;;10.60;56.80;;;9.25;59.35;100349.63;12241330;19;19959;-86
2024/01/02 02:29:24;;;;;;;;;;;10.60;56.80;;;9.21;59.35;100342.91;12247102;19;19918;-86
2024/01/02 02:33:25;;;;;;;;;;;10.60;56.70;;;9.24;59.23;100347.13;12246572;19;19927;-86
2024/01/02 02:37:27;;;;;;;;;;;10.50;56.70;;;9.07;59.40;100321.97;12245091;19;19947;-86
2024/01/02 02:41:29;;;;;;;;;;;10.70;56.80;;;9.06;59.46;100322.91;12246519;19;19922;-86
2024/01/02 02:45:33;;;;;;;;;;;10.50;56.70;;;9.11;59.47;100331.31;12243599;19;19923;-86
2024/01/02 02:49:34;;;;;;;;;;;10.40;56.70;;;9.07;59.27;100320.25;12244668;19;20341;-86
2024/01/02 02:53:36;;;;;;;;;;;10.40;56.70;;;8.99;59.34;100305.94;12246073;19;19944;-86
2024/01/02 02:57:38;;;;;;;;;;;10.50;56.70;;;9.02;59.21;100316.22;12243606;19;19918;-86
2024/01/02 03:01:41;;;;;;;;;;;10.30;56.60;;;8.83;59.41;100278.16;12245956;19;19921;-86
2024/01/02 03:05:42;;;;;;;;;;;10.20;56.50;;;8.66;59.30;100256.56;12244525;19;19934;-86
2024/01/02 03:09:44;;;;;;;;;;;10.40;56.60;;;8.83;59.29;100291.19;12246522;19;19922;-86
2024/01/02 03:13:47;;;;;;;;;;;10.20;56.60;;;8.54;59.34;100248.50;12245979;19;20489;-86
2024/01/02 03:17:49;;;;;;;;;;;10.10;56.60;;;8.79;59.20;100287.06;12243672;19;19923;-86
2024/01/02 03:21:51;;;;;;;;;;;10.10;56.60;;;8.68;59.30;100272.94;12246702;19;19974;-86
2024/01/02 03:25:52;;;;;;;;;;;10.00;56.60;;;8.67;59.35;100266.91;12241402;19;20543;-86
2024/01/02 03:29:54;;;;;;;;;;;10.10;56.60;;;8.44;59.21;100236.09;12246865;19;20405;-86
2024/01/02 03:33:56;;;;;;;;;;;9.90;56.50;;;8.56;59.18;100246.69;12244390;19;20317;-86
2024/01/02 03:37:58;;;;;;;;;;;9.90;56.50;;;8.49;59.25;100240.13;12245259;19;19927;-86
2024/01/02 03:41:59;;;;;;;;;;;9.80;56.50;;;8.27;59.14;100206.59;12245993;19;20006;-86
2024/01/02 03:46:01;;;;;;;;;;;9.80;56.50;;;8.52;59.18;100242.56;12242504;19;20256;-86
2024/01/02 03:50:02;;;;;;;;;;;9.80;56.60;;;8.39;59.32;100218.13;12246131;19;19944;-87
2024/01/02 03:54:04;;;;;;;;;;;9.70;56.50;;;8.45;59.29;100235.16;12245549;19;20352;-86
2024/01/02 03:58:06;;;;;;;;;;;9.70;56.50;;;8.46;59.23;100239.44;12240840;19;19915;-86
2024/01/02 04:02:07;;;;;;;;;;;9.70;56.50;;;8.38;59.23;100229.44;12245838;19;19914;-86
2024/01/02 04:06:09;;;;;;;;;;;9.60;56.50;;;8.17;59.03;100187.19;12242225;19;19911;-86
2024/01/02 04:10:11;;;;;;;;;;;9.60;56.50;;;8.17;59.17;100190.63;12244954;19;19926;-86
2024/01/02 04:14:12;;;;;;;;;;;9.60;56.40;;;8.18;59.21;100187.13;12250159;19;19923;-86
2024/01/02 04:18:14;;;;;;;;;;;9.50;56.40;;;8.21;59.14;100193.94;12252609;19;20680;-86
2024/01/02 04:22:16;;;;;;;;;;;9.50;56.40;;;7.97;59.26;100152.72;12256179;19;19918;-86
2024/01/02 04:26:18;;;;;;;;;;;9.50;56.40;;;8.14;59.27;100184.75;12253153;19;19918;-86
2024/01/02 04:30:19;;;;;;;;;;;9.40;56.40;;;8.00;59.13;100169.06;12257317;19;19915;-86
2024/01/02 04:34:21;;;;;;;;;;;9.40;56.40;;;7.98;59.20;100167.38;12256128;19;19921;-86
2024/01/02 04:38:22;;;;;;;;;;;9.40;56.40;;;7.95;59.03;100164.09;12251373;19;20292;-86
2024/01/02 04:42:24;;;;;;;;;;;9.30;56.40;;;7.90;59.27;100155.72;12255466;19;19915;-86
2024/01/02 04:46:28;;;;;;;;;;;9.30;56.40;;;7.89;59.28;100160.06;12249930;19;19922;-86
2024/01/02 04:50:30;;;;;;;;;;;9.20;56.30;;;7.75;59.17;100136.59;12252395;19;19945;-86
2024/01/02 04:54:31;;;;;;;;;;;9.20;56.30;;;7.78;59.10;100143.34;12252590;19;19914;-86
2024/01/02 04:58:33;;;;;;;;;;;9.10;56.30;;;7.86;59.26;100162.00;12248680;19;19942;-86
2024/01/02 05:02:35;;;;;;;;;;;9.10;56.30;;;7.80;59.09;100152.75;12252583;19;19915;-86
2024/01/02 05:06:36;;;;;;;;;;;9.00;56.30;;;7.51;58.92;100105.78;12250857;19;19943;-86
2024/01/02 05:10:38;;;;;;;;;;;9.00;56.20;;;7.57;58.93;100129.75;12252752;19;20180;-86
2024/01/02 05:14:39;;;;;;;;;;;8.90;56.10;;;7.57;59.11;100128.00;12252004;19;20273;-86
2024/01/02 05:18:41;;;;;;;;;;;8.90;56.00;;;7.46;58.96;100115.56;12250518;19;20260;-86
2024/01/02 05:22:43;;;;;;;;;;;8.80;56.00;;;7.41;59.12;100109.75;12251711;19;19994;-86
2024/01/02 05:26:44;;;;;;;;;;;8.70;56.00;;;7.08;59.21;100066.44;12243332;19;19919;-86
2024/01/02 05:30:46;;;;;;;;;;;8.60;56.00;;;7.16;58.87;100080.81;12250751;19;19918;-86
2024/01/02 05:34:48;;;;;;;;;;;8.50;56.00;;;7.08;59.21;100081.19;12249869;19;19918;-86
2024/01/02 05:38:50;;;;;;;;;;;8.50;56.10;;;7.01;58.99;100067.66;12249128;19;19932;-86
2024/01/02 05:42:51;;;;;;;;;;;8.40;56.10;;;7.02;59.14;100077.16;12249302;19;19910;-86
2024/01/02 05:46:53;;;;;;;;;;;8.40;56.20;;;6.85;59.05;100048.59;12248402;19;19923;-86
2024/01/02 05:50:55;;;;;;;;;;;8.30;56.20;;;7.03;59.09;100088.38;12250650;19;20478;-86
2024/01/02 05:54:56;;;;;;;;;;;8.30;56.20;;;6.97;58.89;100075.72;12251067;19;19927;-86
2024/01/02 05:58:58;;;;;;;;;;;8.20;56.10;;;6.91;58.92;100065.63;12250989;19;19910;-86
2024/01/02 06:03:03;;;;;;;;;;;8.20;56.20;;;6.81;58.96;100049.69;12243642;19;20219;-86
2024/01/02 06:07:05;;;;;;;;;;;8.10;56.20;;;6.77;59.11;100043.78;12249247;19;19970;-86
2024/01/02 06:11:08;;;;;;;;;;;8.10;56.20;;;6.75;59.16;100034.41;12247856;19;20274;-86
2024/01/02 06:15:09;;;;;;;;;;;8.10;56.20;;;6.75;58.96;100040.47;12248669;19;20344;-86
2024/01/02 06:19:11;;;;;;;;;;;8.00;56.20;;;6.65;59.04;100027.09;12248114;19;19952;-86
2024/01/02 06:23:13;;;;;;;;;;;8.00;56.20;;;6.63;59.22;100023.72;12249078;19;19918;-86
2024/01/02 06:27:15;;;;;;;;;;;8.10;56.30;;;6.43;58.97;99991.03;12246258;19;19915;-86
2024/01/02 06:31:20;;;;;;;;;;;7.90;56.20;;;6.59;59.01;100021.41;12249957;19;19974;-86
2024/01/02 06:35:21;;;;;;;;;;;7.90;56.20;;;6.41;59.04;99995.44;12247538;19;19911;-86
2024/01/02 06:39:23;;;;;;;;;;;7.80;56.30;;;6.41;59.22;99989.44;12248223;19;19926;-86
2024/01/02 06:43:25;;;;;;;;;;;7.80;56.30;;;6.32;58.99;99977.75;12246383;19;19994;-86
2024/01/02 06:47:27;;;;;;;;;;;7.80;56.40;;;6.42;59.23;99993.69;12243198;19;19918;-86
2024/01/02 06:51:29;;;;;;;;;;;7.90;56.50;;;6.31;59.08;99975.22;12248698;19;19919;-86
2024/01/02 06:55:31;;;;;;;;;;;7.70;56.40;;;6.16;59.07;99959.53;12246496;19;19926;-86
2024/01/02 06:59:32;;;;;;;;;;;7.70;56.80;;;6.30;59.23;99987.34;12249172;19;19945;-86
2024/01/02 07:03:34;;;;;;;;;;;7.70;56.40;;;6.31;59.08;99991.63;12247049;19;19940;-87
2024/01/02 07:07:36;;;;;;;;;;;7.70;56.40;;;6.25;58.97;99985.91;12243735;19;19919;-86
2024/01/02 07:11:38;;;;;;;;;;;7.70;56.40;;;6.29;59.08;99985.69;12247582;19;19929;-86
2024/01/02 07:15:40;;;;;;;;;;;7.60;56.40;;;6.25;59.28;99975.53;12246398;19;19950;-86
2024/01/02 07:19:41;;;;;;;;;;;7.60;56.50;;;6.17;59.10;99962.94;12245530;19;19922;-85
2024/01/02 07:23:42;;;;;;;;;;;7.60;56.60;;;6.22;59.25;99970.50;12241938;19;19922;-87
2024/01/02 07:27:44;;;;;;;;;;;7.60;56.60;;;6.21;59.37;99974.84;12243716;19;19919;-86
2024/01/02 07:31:45;;;;;;;;;;;7.60;56.90;;;6.14;59.29;99948.38;12242918;19;19918;-85
2024/01/02 07:35:46;;;;;;;;;;;7.60;56.90;;;6.00;59.48;99916.31;12244142;19;19986;-85
2024/01/02 07:39:50;;;;;;;;;;;7.60;57.30;;;6.12;59.40;99929.47;12242619;19;20358;-85
2024/01/02 07:43:52;;;;;;;;;;;7.60;57.20;;;6.28;59.59;99934.75;12242776;19;19958;-86
2024/01/02 07:47:54;;;;;;;;;;;7.60;57.20;;;6.26;59.59;99921.00;12241586;19;19975;-86
2024/01/02 07:51:55;;;;;;;;;;;7.70;57.30;;;6.30;59.48;99922.53;12255698;19;20342;-86
2024/01/02 07:55:57;;;;;;;;;;;7.70;57.40;;;6.22;59.58;99895.34;12252965;19;19929;-86
2024/01/02 07:59:59;;;;;;;;;;;7.70;57.40;;;6.39;59.47;99913.44;12255134;19;19915;-86
2024/01/02 08:04:00;;;;;;;;;;;7.80;57.30;;;6.37;59.42;99894.53;12253665;19;19934;-86
2024/01/02 08:08:02;;;;;;;;;;;7.80;57.30;;;6.28;59.66;99876.88;12250782;19;19911;-86
2024/01/02 08:12:05;;;;;;;;;;;7.80;57.20;;;6.32;59.64;99862.81;12253748;19;19919;-86
2024/01/02 08:16:06;;;;;;;;;;;7.80;57.20;;;6.45;59.58;99882.00;12254173;19;19918;-86
2024/01/02 08:20:09;;;;;;;;;;;7.90;57.10;;;6.31;59.76;99858.56;12254915;19;20341;-86
2024/01/02 08:24:10;;;;;;;;;;;7.90;57.10;;;6.33;59.72;99846.34;12253525;19;19915;-86
2024/01/02 08:28:12;;;;;;;;;;;7.90;57.10;;;6.42;59.56;99853.66;12252450;19;19925;-86
2024/01/02 08:32:14;;;;;;;;;;;7.90;57.20;;;6.38;59.73;99846.97;12250686;19;19909;-86
2024/01/02 08:36:16;;;;;;;;;;;7.90;57.20;;;6.49;59.73;99859.38;12254406;19;20019;-86
2024/01/02 08:40:18;;;;;;;;;;;8.10;57.20;;;6.36;59.62;99822.84;12254718;19;20252;-89
2024/01/02 08:44:19;;;;;;;;;;;8.00;57.20;;;6.54;59.67;99841.81;12250678;19;19922;-86
2024/01/02 08:48:20;;;;;;;;;;;8.00;57.30;;;6.56;59.84;99833.03;12252291;19;20345;-87
2024/01/02 08:52:22;;;;;;;;;;;8.00;57.50;;;6.60;59.83;99831.09;12254080;19;19978;-85
2024/01/02 08:56:24;;;;;;;;;;;8.00;57.20;;;6.64;59.84;99820.50;12251396;19;19915;-86
2024/01/02 09:00:26;;;;;;;;;;;8.10;57.40;;;6.59;59.68;99809.53;12253210;19;19926;-86
2024/01/02 09:04:27;;;;;;;;;;;8.10;57.40;;;6.55;59.80;99787.25;12250699;19;20019;-85
2024/01/02 09:08:28;;;;;;;;;;;8.30;57.70;;;6.46;59.88;99764.41;12249256;19;19907;-85
2024/01/02 09:12:31;;;;;;;;;;;8.20;57.40;;;6.78;59.78;99808.53;12252866;19;19926;-84
2024/01/02 09:16:33;;;;;;;;;;;8.30;57.70;;;6.69;60.00;99778.72;12250992;19;19946;-84
2024/01/02 09:20:34;;;;;;;;;;;8.30;57.60;;;6.92;59.94;99800.00;12253477;19;19915;-84
2024/01/02 09:24:38;;;;;;;;;;;8.30;57.90;;;6.70;59.97;99751.88;12251756;19;20257;-86
2024/01/02 09:28:42;;;;;;;;;;;8.40;57.90;;;6.94;59.90;99778.22;12247745;19;20325;-85
2024/01/02 09:32:44;;;;;;;;;;;8.40;58.60;;;7.00;59.89;99769.25;12251762;19;19926;-87
2024/01/02 09:36:46;;;;;;;;;;;8.50;58.70;;;6.85;59.88;99737.19;12250713;19;19922;-86
2024/01/02 09:40:57;;;;;;;;;;;8.50;59.00;;;7.15;60.03;99770.97;12249336;19;19927;-86
2024/01/02 09:45:12;;;;;;;;;;;8.60;59.10;;;7.13;59.96;99764.19;12248213;19;20307;-86
2024/01/02 09:49:26;;;;;;;;;;;8.60;59.40;;;7.21;59.96;99769.78;12249460;19;20333;-86
2024/01/02 09:53:50;;;;;;;;;;;8.60;59.50;;;7.20;60.13;99755.16;12251403;19;19919;-85
2024/01/02 09:57:54;;;;;;;;;;;8.70;59.20;;;7.26;60.17;99742.66;12248719;19;19928;-85
2024/01/02 10:02:19;;;;;;;;;;;8.70;59.30;;;7.15;59.96;99713.88;12249735;19;19925;-86
2024/01/02 10:06:34;;;;;;;;;;;8.70;59.60;;;7.28;60.04;99724.38;12246413;19;19923;-86
2024/01/02 10:11:13;;;;;;;;;;;8.80;59.20;;;7.34;60.12;99718.84;12249755;19;20010;-85
2024/01/02 10:15:34;;;;;;;;;;;8.80;59.30;;;7.38;60.05;99703.94;12248195;19;19922;-86
2024/01/02 10:19:53;;;;;;;;;;;9.00;59.20;;;7.34;59.98;99686.84;12249641;19;19915;-86
2024/01/02 10:24:11;;;;;;;;;;;8.80;59.50;;;7.42;60.09;99692.41;12246225;19;20348;-86
2024/01/02 10:28:24;;;;;;;;;;;8.80;59.10;;;7.47;60.29;99690.38;12244921;19;19990;-89
2024/01/02 10:32:50;;;;;;;;;;;8.90;59.50;;;7.52;60.20;99696.16;12248197;19;19936;-86
2024/01/02 10:37:02;;;;;;;;;;;8.90;59.00;;;7.51;60.18;99679.72;12249248;19;19911;-86
2024/01/02 10:41:14;;;;;;;;;;;8.90;58.70;;;7.51;60.26;99669.34;12246029;19;19919;-86
2024/01/02 10:45:50;;;;;;;;;;;9.00;58.90;;;7.51;60.09;99645.97;12245181;19;19933;-86
2024/01/02 10:49:57;;;;;;;;;;;9.00;58.70;;;7.64;60.34;99634.81;12247330;19;20262;-86
2024/01/02 10:54:04;;;;;;;;;;;9.00;58.80;;;7.61;60.12;99611.63;12245713;19;19923;-85
2024/01/02 10:58:11;;;;;;;;;;;9.20;58.70;;;7.69;60.30;99605.03;12245555;19;19936;-86
2024/01/02 11:02:27;;;;;;;;;;;9.10;58.30;;;7.68;60.14;99590.38;12246971;19;20367;-85
2024/01/02 11:06:35;;;;;;;;;;;9.10;58.40;;;7.78;60.33;99587.19;12242732;19;19921;-85
2024/01/02 11:10:46;;;;;;;;;;;9.20;58.60;;;7.72;60.21;99568.47;12248915;19;19922;-85
2024/01/02 11:14:50;;;;;;;;;;;9.20;58.40;;;7.63;60.26;99545.66;12243949;19;19919;-86
2024/01/02 11:18:56;;;;;;;;;;;9.20;58.70;;;7.78;60.16;99550.81;12245487;19;19942;-86
2024/01/02 11:23:02;;;;;;;;;;;9.20;58.50;;;7.82;60.14;99532.34;12249229;19;19926;-86
2024/01/02 11:27:04;;;;;;;;;;;9.20;58.50;;;7.79;60.29;99516.94;12255373;19;19911;-86
2024/01/02 11:31:12;;;;;;;;;;;9.20;58.50;;;7.83;60.28;99508.03;12255163;19;19919;-86
2024/01/02 11:35:14;;;;;;;;;;;9.30;58.30;;;7.88;60.15;99510.31;12257692;19;19934;-86
2024/01/02 11:39:18;;;;;;;;;;;9.30;58.50;;;7.81;60.40;99481.31;12255752;19;19922;-87
2024/01/02 11:43:25;;;;;;;;;;;9.30;58.80;;;7.90;60.29;99492.88;12255382;19;19937;-87
2024/01/02 11:47:42;;;;;;;;;;;9.30;58.50;;;7.91;60.35;99505.78;12256058;19;19943;-86
2024/01/02 11:51:51;;;;;;;;;;;9.30;58.80;;;7.82;60.44;99480.38;12255969;19;20341;-85
2024/01/02 11:56:03;;;;;;;;;;;9.50;59.30;;;7.85;60.33;99474.16;12253814;19;20397;-86
2024/01/02 12:00:09;;;;;;;;;;;9.40;58.60;;;7.88;60.38;99469.56;12255005;19;19921;-86
2024/01/02 12:04:22;;;;;;;;;;;9.40;58.90;;;7.92;60.41;99460.66;12253684;19;19911;-86
2024/01/02 12:08:26;;;;;;;;;;;9.40;58.80;;;7.84;60.27;99430.91;12251248;19;19970;-86
2024/01/02 12:12:37;;;;;;;;;;;9.40;58.80;;;8.06;60.49;99451.97;12255532;19;19915;-85
2024/01/02 12:16:42;;;;;;;;;;;9.40;58.70;;;8.05;60.28;99439.09;12255241;19;19928;-86
2024/01/02 12:21:01;;;;;;;;;;;9.40;58.70;;;7.98;60.39;99412.63;12254393;19;19919;-86
2024/01/02 12:25:05;;;;;;;;;;;9.50;58.70;;;7.98;60.32;99405.66;12250219;19;19915;-86
2024/01/02 12:29:07;;;;;;;;;;;9.50;58.50;;;7.95;60.53;99381.66;12254947;19;19907;-87
2024/01/02 12:33:18;;;;;;;;;;;9.50;58.50;;;8.12;60.49;99396.13;12252170;19;19915;-86
2024/01/02 12:37:30;;;;;;;;;;;9.50;58.40;;;8.17;60.27;99394.06;12250181;19;19915;-85
2024/01/02 12:41:37;;;;;;;;;;;9.60;58.40;;;8.07;60.54;99357.41;12255994;19;20331;-86
2024/01/02 12:45:43;;;;;;;;;;;9.60;58.60;;;8.14;60.38;99365.66;12250925;19;19918;-86
2024/01/02 12:49:59;;;;;;;;;;;9.60;58.60;;;8.01;60.27;99336.22;12253738;19;19926;-85
2024/01/02 12:54:02;;;;;;;;;;;9.60;58.40;;;8.17;60.50;99344.66;12253138;19;19925;-86
2024/01/02 12:58:05;;;;;;;;;;;9.70;58.50;;;8.13;60.38;99341.44;12247862;19;19911;-85
2024/01/02 13:02:07;;;;;;;;;;;9.60;58.40;;;7.88;60.49;99290.25;12251481;19;19930;-86
2024/01/02 13:06:09;;;;;;;;;;;9.80;58.80;;;8.13;60.47;99331.03;12248038;19;19925;-85
2024/01/02 13:10:11;;;;;;;;;;;9.70;58.70;;;8.13;60.59;99325.00;12252223;19;19915;-87
2024/01/02 13:14:14;;;;;;;;;;;9.60;58.60;;;8.13;60.50;99312.84;12253652;19;19906;-86
2024/01/02 13:18:17;;;;;;;;;;;9.60;58.60;;;8.19;60.36;99317.59;12248399;19;20356;-87
2024/01/02 13:22:22;;;;;;;;;;;9.70;58.70;;;8.21;60.48;99320.13;12253184;19;19915;-86
2024/01/02 13:26:25;;;;;;;;;;;9.60;59.00;;;8.07;60.58;99289.81;12248299;19;19970;-86
2024/01/02 13:30:47;;;;;;;;;;;9.70;59.00;;;8.23;60.74;99317.41;12252714;19;19918;-86
2024/01/02 13:34:49;;;;;;;;;;;9.70;59.00;;;8.10;60.60;99279.25;12247936;19;19945;-86
2024/01/02 13:38:51;;;;;;;;;;;9.70;58.80;;;8.24;60.50;99291.31;12251580;19;19929;-86
2024/01/02 13:42:56;;;;;;;;;;;9.70;59.00;;;8.34;60.42;99305.31;12251245;19;19910;-86
2024/01/02 13:46:58;;;;;;;;;;;9.70;58.80;;;8.34;60.62;99288.88;12246784;19;19926;-86
2024/01/02 13:51:03;;;;;;;;;;;9.80;58.80;;;8.28;60.61;99279.72;12251060;19;19907;-86
2024/01/02 13:55:05;;;;;;;;;;;9.80;58.80;;;8.33;60.33;99277.66;12249327;19;20273;-86
2024/01/02 13:59:11;;;;;;;;;;;9.80;59.00;;;8.45;60.54;99296.78;12250998;19;19931;-86
2024/01/02 14:03:19;;;;;;;;;;;9.80;58.90;;;8.20;60.54;99261.22;12249940;19;19923;-86
2024/01/02 14:07:20;;;;;;;;;;;9.80;58.80;;;8.44;60.41;99292.53;12248560;19;19907;-86
2024/01/02 14:11:22;;;;;;;;;;;9.80;58.80;;;8.31;60.56;99260.47;12251376;19;19948;-85
2024/01/02 14:15:24;;;;;;;;;;;9.80;58.80;;;8.46;60.50;99275.06;12252429;19;19919;-86
2024/01/02 14:19:29;;;;;;;;;;;9.90;58.90;;;8.29;60.57;99247.59;12249172;19;20574;-85
2024/01/02 14:23:58;;;;;;;;;;;9.90;58.70;;;8.52;60.39;99276.41;12249921;19;20264;-86
2024/01/02 14:28:17;;;;;;;;;;;9.90;58.70;;;8.51;60.50;99280.78;12244352;19;19918;-86
2024/01/02 14:32:47;;;;;;;;;;;9.90;58.50;;;8.47;60.59;99278.50;12249409;19;19911;-86
2024/01/02 14:36:52;;;;;;;;;;;9.90;58.30;;;8.52;60.68;99285.03;12244929;19;19994;-86
2024/01/02 14:40:59;;;;;;;;;;;9.90;58.60;;;8.48;60.73;99268.00;12250668;19;19919;-86
2024/01/02 14:45:03;;;;;;;;;;;9.90;58.60;;;8.54;60.65;99267.56;12243479;19;19919;-86
2024/01/02 14:49:33;;;;;;;;;;;10.10;58.80;;;8.31;60.68;99222.31;12248202;19;20362;-86
2024/01/02 14:53:56;;;;;;;;;;;9.90;58.70;;;8.57;60.62;99259.53;12248715;19;20755;-86
2024/01/02 14:58:00;;;;;;;;;;;10.00;58.90;;;8.45;60.70;99231.75;12245730;19;19923;-87
2024/01/02 15:02:27;;;;;;;;;;;9.90;58.80;;;8.58;60.50;99245.56;12248091;19;19915;-86
2024/01/02 15:06:35;;;;;;;;;;;9.90;58.80;;;8.58;60.63;99249.94;12244845;19;19911;-86
2024/01/02 15:11:09;;;;;;;;;;;10.00;58.90;;;8.56;60.63;99241.41;12247150;19;19919;-86
2024/01/02 15:15:21;;;;;;;;;;;9.90;58.60;;;8.55;60.64;99247.56;12243647;19;20360;-86
2024/01/02 15:19:37;;;;;;;;;;;9.90;58.70;;;8.61;60.54;99249.72;12245850;19;19923;-86
2024/01/02 15:24:05;;;;;;;;;;;10.10;58.80;;;8.48;60.50;99217.72;12247173;19;19954;-87
2024/01/02 15:28:30;;;;;;;;;;;10.00;58.80;;;8.60;60.43;99237.66;12244239;19;19915;-86
2024/01/02 15:32:34;;;;;;;;;;;10.00;58.80;;;8.55;60.67;99218.94;12245114;19;19918;-86
2024/01/02 15:36:47;;;;;;;;;;;10.00;58.90;;;8.64;60.69;99215.69;12247687;19;19952;-86
2024/01/02 15:40:49;;;;;;;;;;;10.00;58.80;;;8.58;60.70;99211.75;12246679;19;19975;-86
2024/01/02 15:45:01;;;;;;;;;;;10.00;58.80;;;8.59;60.55;99204.78;12243670;19;19911;-86
2024/01/02 15:49:26;;;;;;;;;;;10.00;58.70;;;8.62;60.52;99196.75;12245537;19;19923;-86
2024/01/02 15:53:48;;;;;;;;;;;10.00;59.00;;;8.55;60.48;99172.13;12246041;19;19929;-86
2024/01/02 15:57:53;;;;;;;;;;;10.10;58.80;;;8.67;60.48;99192.06;12242111;19;19922;-86
2024/01/02 16:02:01;;;;;;;;;;;10.00;58.70;;;8.68;60.74;99188.50;12247833;19;19932;-86
2024/01/02 16:06:22;;;;;;;;;;;10.00;58.80;;;8.71;60.66;99185.69;12242710;19;19919;-86
2024/01/02 16:10:53;;;;;;;;;;;10.10;58.90;;;8.71;60.63;99175.28;12254537;19;20343;-86
2024/01/02 16:15:11;;;;;;;;;;;10.00;58.70;;;8.64;60.65;99166.25;12256969;19;19940;-85
2024/01/02 16:19:21;;;;;;;;;;;10.00;58.70;;;8.72;60.76;99173.50;12256486;19;19915;-85
2024/01/02 16:23:46;;;;;;;;;;;10.00;58.70;;;8.63;60.63;99147.19;12256578;19;19936;-85
2024/01/02 16:27:47;;;;;;;;;;;10.10;58.60;;;8.71;60.75;99154.44;12253143;19;19936;-86
2024/01/02 16:32:10;;;;;;;;;;;10.00;59.00;;;8.71;60.71;99138.00;12256589;19;19930;-86
2024/01/02 16:36:12;;;;;;;;;;;10.10;58.90;;;8.72;60.60;99137.06;12253240;19;19915;-85
2024/01/02 16:40:47;;;;;;;;;;;10.00;58.80;;;8.71;60.80;99119.81;12252395;19;20362;-86
2024/01/02 16:44:48;;;;;;;;;;;10.00;58.90;;;8.64;60.61;99107.25;12251009;19;19986;-85
2024/01/02 16:48:51;;;;;;;;;;;10.10;58.90;;;8.65;60.78;99105.47;12252614;19;19923;-85
2024/01/02 16:52:54;;;;;;;;;;;10.10;58.80;;;8.65;60.75;99095.06;12254259;19;19911;-85
2024/01/02 16:56:57;;;;;;;;;;;10.10;59.00;;;8.68;60.70;99089.63;12252106;19;19933;-86
2024/01/02 17:00:58;;;;;;;;;;;10.10;58.90;;;8.76;60.54;99097.69;12256056;19;19919;-86
2024/01/02 17:05:03;;;;;;;;;;;10.10;58.70;;;8.65;60.71;99069.03;12252965;19;19923;-85
2024/01/02 17:09:06;;;;;;;;;;;10.10;58.90;;;8.71;60.90;99073.78;12257699;19;19961;-85
2024/01/02 17:13:10;;;;;;;;;;;10.10;59.00;;;8.70;60.60;99069.53;12253132;19;19922;-86
2024/01/02 17:17:12;;;;;;;;;;;10.10;59.10;;;8.79;60.87;99075.81;12251581;19;20271;-86
2024/01/02 17:21:17;;;;;;;;;;;10.10;59.00;;;8.63;60.63;99044.91;12250740;19;19926;-86
2024/01/02 17:25:19;;;;;;;;;;;10.10;59.00;;;8.80;60.86;99057.50;12250746;19;19922;-85
2024/01/02 17:29:20;;;;;;;;;;;10.20;59.10;;;8.68;60.63;99042.78;12252124;19;19925;-85
2024/01/02 17:33:24;;;;;;;;;;;10.10;59.00;;;8.78;60.74;99043.78;12250263;19;20372;-86
2024/01/02 17:37:30;;;;;;;;;;;10.20;59.00;;;8.77;60.85;99031.69;12250277;19;19915;-85
2024/01/02 17:41:31;;;;;;;;;;;10.10;58.80;;;8.75;60.96;99015.38;12250104;19;19936;-85
2024/01/02 17:45:33;;;;;;;;;;;10.20;58.90;;;8.72;60.70;99015.59;12248514;19;19922;-85
2024/01/02 17:49:35;;;;;;;;;;;10.20;59.10;;;8.86;60.93;99019.78;12251900;19;20366;-86
2024/01/02 17:53:50;;;;;;;;;;;10.20;59.10;;;8.88;60.74;99012.66;12251601;19;19919;-85
2024/01/02 17:58:01;;;;;;;;;;;10.20;59.10;;;8.77;60.87;98997.84;12250059;19;19925;-85
2024/01/02 18:02:15;;;;;;;;;;;10.20;59.10;;;8.77;60.92;98982.22;12252233;19;19906;-85
2024/01/02 18:06:17;;;;;;;;;;;10.20;59.10;;;8.92;60.75;98997.66;12249012;19;19988;-86
2024/01/02 18:10:32;;;;;;;;;;;10.20;59.00;;;8.86;60.84;98983.34;12250719;19;19929;-86
2024/01/02 18:14:52;;;;;;;;;;;10.20;59.00;;;8.95;60.75;98984.41;12251154;19;19933;-85
2024/01/02 18:19:22;;;;;;;;;;;10.30;59.20;;;8.96;60.75;98979.06;12254151;19;19942;-85
2024/01/02 18:23:30;;;;;;;;;;;10.30;59.10;;;8.96;60.94;98973.03;12251576;19;19907;-85
2024/01/02 18:27:48;;;;;;;;;;;10.30;59.00;;;8.98;60.85;98964.16;12247149;19;19911;-85
2024/01/02 18:31:58;;;;;;;;;;;10.30;59.00;;;9.00;60.81;98964.88;12247564;19;19964;-85
2024/01/02 18:36:15;;;;;;;;;;;10.30;59.10;;;8.96;60.99;98945.22;12250328;19;19922;-85
2024/01/02 18:40:25;;;;;;;;;;;10.30;59.10;;;8.99;60.74;98942.41;12251723;19;19907;-85
2024/01/02 18:44:52;;;;;;;;;;;10.40;59.00;;;9.02;60.76;98925.72;12248318;19;19923;-86
2024/01/02 18:48:57;;;;;;;;;;;10.40;59.10;;;9.00;60.87;98922.41;12250201;19;20620;-86
2024/01/02 18:53:04;;;;;;;;;;;10.40;59.10;;;9.06;60.77;98927.13;12251162;19;19925;-85